Time;durP1;ratioP1;P1;durP2;ratioP2;P2;SDS_P1;SDS_P2;PMS_P1;PMS_P2;Temp;Humidity;BMP_temperature;BMP_pressure;BME280_temperature;BME280_humidity;BME280_pressure;Samples;Min_cycle;Max_cycle;Signal;HPM_P1;HPM_P2
2022/05/16 00:00:13;;;;;;;2.40;2.10;;;;;;;;;;5081862;28;20196;-67
2022/05/16 00:02:39;;;;;;;2.20;2.03;;;;;;;;;;5081662;28;20208;-67
2022/05/16 00:05:06;;;;;;;3.45;1.98;;;;;;;;;;5081801;28;20220;-67
2022/05/16 00:07:33;;;;;;;2.90;2.00;;;;;;;;;;5081522;28;20196;-67
2022/05/16 00:10:00;;;;;;;3.03;1.77;;;;;;;;;;5081516;28;20220;-67
2022/05/16 00:12:26;;;;;;;1.70;1.60;;;;;;;;;;5081804;28;20219;-67
2022/05/16 00:14:53;;;;;;;5.47;1.80;;;;;;;;;;5081727;28;20512;-67
2022/05/16 00:17:19;;;;;;;4.00;1.88;;;;;;;;;;5081560;28;20204;-67
2022/05/16 00:19:45;;;;;;;3.88;2.15;;;;;;;;;;5081651;28;20199;-67
2022/05/16 00:22:12;;;;;;;3.65;2.40;;;;;;;;;;5083655;28;20504;-67
2022/05/16 00:24:39;;;;;;;2.40;2.28;;;;;;;;;;5085260;28;20419;-67
2022/05/16 00:27:07;;;;;;;1.90;1.80;;;;;;;;;;5085167;28;20208;-67
2022/05/16 00:29:33;;;;;;;3.70;1.90;;;;;;;;;;5085227;28;20589;-67
2022/05/16 00:32:00;;;;;;;2.85;2.15;;;;;;;;;;5085193;28;20392;-67
2022/05/16 00:34:26;;;;;;;3.00;2.20;;;;;;;;;;5085532;28;20196;-67
2022/05/16 00:36:52;;;;;;;2.80;2.20;;;;;;;;;;5084767;28;20212;-67
2022/05/16 00:39:20;;;;;;;5.10;2.10;;;;;;;;;;5084974;28;20204;-67
2022/05/16 00:41:46;;;;;;;1.98;1.88;;;;;;;;;;5085048;28;20242;-67
2022/05/16 00:44:14;;;;;;;4.50;1.98;;;;;;;;;;5085094;28;20549;-67
2022/05/16 00:46:41;;;;;;;2.15;1.70;;;;;;;;;;5084627;28;20205;-67
2022/05/16 00:49:09;;;;;;;2.33;2.10;;;;;;;;;;5084953;28;20217;-67
2022/05/16 00:51:38;;;;;;;2.00;1.90;;;;;;;;;;5085211;28;20208;-67
2022/05/16 00:54:07;;;;;;;2.20;2.05;;;;;;;;;;5084991;28;20267;-67
2022/05/16 00:56:34;;;;;;;3.72;1.90;;;;;;;;;;5084575;28;20196;-67
2022/05/16 00:59:00;;;;;;;3.42;1.88;;;;;;;;;;5084842;28;20192;-67
2022/05/16 01:07:03;;;;;;;2.97;1.95;;;;;;;;;;5078547;28;20238;-67
2022/05/16 01:09:30;;;;;;;3.53;2.00;;;;;;;;;;5084928;28;20228;-67
2022/05/16 01:11:57;;;;;;;3.55;2.00;;;;;;;;;;5084276;28;20201;-67
2022/05/16 01:14:42;;;;;;;2.70;2.20;;;;;;;;;;5084385;28;20241;-67
2022/05/16 01:17:10;;;;;;;1.98;1.80;;;;;;;;;;5084299;28;20196;-67
2022/05/16 01:19:36;;;;;;;2.60;2.17;;;;;;;;;;5084400;28;20199;-67
2022/05/16 01:22:06;;;;;;;2.50;2.30;;;;;;;;;;5084293;28;20242;-67
2022/05/16 01:24:33;;;;;;;4.53;2.30;;;;;;;;;;5083465;28;20200;-67
2022/05/16 01:26:59;;;;;;;2.20;2.10;;;;;;;;;;5084032;28;20201;-67
2022/05/16 01:29:26;;;;;;;3.22;1.98;;;;;;;;;;5084109;28;20400;-67
2022/05/16 01:31:52;;;;;;;3.78;2.13;;;;;;;;;;5084126;28;20258;-67
2022/05/16 01:34:18;;;;;;;2.88;2.33;;;;;;;;;;5083305;28;20242;-67
2022/05/16 01:36:44;;;;;;;2.50;2.00;;;;;;;;;;5083669;28;20265;-67
2022/05/16 01:39:11;;;;;;;1.83;1.73;;;;;;;;;;5084061;28;20538;-67
2022/05/16 01:41:38;;;;;;;4.00;2.00;;;;;;;;;;5083817;28;20197;-67
2022/05/16 01:44:05;;;;;;;2.95;2.20;;;;;;;;;;5083789;28;20203;-67
2022/05/16 01:46:33;;;;;;;2.50;2.30;;;;;;;;;;5083528;28;20196;-67
2022/05/16 01:48:59;;;;;;;2.08;1.98;;;;;;;;;;5083563;28;20196;-67
2022/05/16 01:51:26;;;;;;;2.30;2.10;;;;;;;;;;5083795;28;20542;-67
2022/05/16 01:53:52;;;;;;;3.67;2.17;;;;;;;;;;5083782;28;20566;-67
2022/05/16 01:56:19;;;;;;;2.35;2.10;;;;;;;;;;5083421;28;20200;-67
2022/05/16 01:58:47;;;;;;;1.98;1.90;;;;;;;;;;5083586;28;20232;-67
2022/05/16 02:01:14;;;;;;;3.50;2.20;;;;;;;;;;5083429;28;20446;-67
2022/05/16 02:03:41;;;;;;;3.10;1.80;;;;;;;;;;5083214;28;20562;-67
2022/05/16 02:06:07;;;;;;;2.30;2.20;;;;;;;;;;5083288;28;20216;-67
2022/05/16 02:08:34;;;;;;;3.65;2.40;;;;;;;;;;5083515;28;20211;-67
2022/05/16 02:11:00;;;;;;;2.40;2.28;;;;;;;;;;5083248;28;20258;-67
2022/05/16 02:13:26;;;;;;;2.70;2.10;;;;;;;;;;5083315;28;20242;-67
2022/05/16 02:15:54;;;;;;;3.30;2.55;;;;;;;;;;5083255;28;20196;-67
2022/05/16 02:18:21;;;;;;;2.50;2.30;;;;;;;;;;5083442;28;20234;-67
2022/05/16 02:20:48;;;;;;;3.97;2.40;;;;;;;;;;5083469;28;20239;-67
2022/05/16 02:25:59;;;;;;;3.55;2.47;;;;;;;;;;5082785;28;20194;-67
2022/05/16 02:28:25;;;;;;;2.72;2.53;;;;;;;;;;5082939;28;20412;-67
2022/05/16 02:30:52;;;;;;;2.80;2.03;;;;;;;;;;5082768;28;20220;-67
2022/05/16 02:33:20;;;;;;;2.50;2.22;;;;;;;;;;5082895;28;20197;-67
2022/05/16 02:35:47;;;;;;;2.60;2.10;;;;;;;;;;5082951;28;20222;-67
2022/05/16 02:38:14;;;;;;;3.28;2.15;;;;;;;;;;5082665;28;20232;-67
2022/05/16 02:40:40;;;;;;;2.20;1.95;;;;;;;;;;5082788;28;20238;-67
2022/05/16 02:43:07;;;;;;;3.00;2.00;;;;;;;;;;5082683;28;20234;-67
2022/05/16 02:45:34;;;;;;;2.05;1.95;;;;;;;;;;5082065;28;20463;-67
2022/05/16 02:48:01;;;;;;;3.35;2.65;;;;;;;;;;5082736;28;20234;-67
2022/05/16 02:50:29;;;;;;;2.25;2.13;;;;;;;;;;5082647;28;20262;-67
2022/05/16 02:52:56;;;;;;;2.13;2.03;;;;;;;;;;5082474;28;20196;-67
2022/05/16 02:55:22;;;;;;;2.55;2.35;;;;;;;;;;5082531;28;20520;-67
2022/05/16 02:57:49;;;;;;;1.85;1.80;;;;;;;;;;5082026;28;20388;-67
2022/05/16 03:00:16;;;;;;;2.40;2.20;;;;;;;;;;5082750;28;20196;-67
2022/05/16 03:02:42;;;;;;;2.65;2.42;;;;;;;;;;5082422;28;20211;-67
2022/05/16 03:05:10;;;;;;;2.70;2.50;;;;;;;;;;5082501;28;20254;-67
2022/05/16 03:07:39;;;;;;;5.53;2.20;;;;;;;;;;5082121;28;20208;-67
2022/05/16 03:10:06;;;;;;;3.38;2.42;;;;;;;;;;5082268;28;20212;-67
2022/05/16 03:12:34;;;;;;;2.58;2.38;;;;;;;;;;5082358;28;20211;-67
2022/05/16 03:15:00;;;;;;;3.25;2.05;;;;;;;;;;5082310;28;20208;-67
2022/05/16 03:17:27;;;;;;;2.35;2.15;;;;;;;;;;5082094;28;20268;-67
2022/05/16 03:19:53;;;;;;;1.63;1.63;;;;;;;;;;5082264;28;20196;-67
2022/05/16 03:22:19;;;;;;;2.28;2.08;;;;;;;;;;5082476;28;20200;-67
2022/05/16 03:24:47;;;;;;;3.78;1.90;;;;;;;;;;5082209;28;20197;-67
2022/05/16 03:27:13;;;;;;;2.60;2.40;;;;;;;;;;5082170;28;20200;-67
2022/05/16 03:29:41;;;;;;;2.25;2.05;;;;;;;;;;5082192;28;20200;-67
2022/05/16 03:32:07;;;;;;;3.03;1.92;;;;;;;;;;5082223;28;20212;-67
2022/05/16 03:34:34;;;;;;;2.55;2.30;;;;;;;;;;5081975;28;20519;-67
2022/05/16 03:37:00;;;;;;;10.65;5.25;;;;;;;;;;5081933;28;20200;-67
2022/05/16 03:42:11;;;;;;;3.60;2.35;;;;;;;;;;5082035;28;20260;-67
2022/05/16 03:44:38;;;;;;;2.85;2.00;;;;;;;;;;5082008;28;20337;-67
2022/05/16 03:47:04;;;;;;;2.00;1.90;;;;;;;;;;5081713;28;20242;-67
2022/05/16 03:49:30;;;;;;;2.85;2.10;;;;;;;;;;5081858;28;20560;-67
2022/05/16 03:51:57;;;;;;;3.40;2.30;;;;;;;;;;5081917;28;20225;-67
2022/05/16 03:54:23;;;;;;;2.58;2.40;;;;;;;;;;5082078;28;20515;-67
2022/05/16 03:56:49;;;;;;;3.58;2.55;;;;;;;;;;5083464;28;20496;-67
2022/05/16 03:59:17;;;;;;;4.63;2.30;;;;;;;;;;5085912;28;20271;-67
2022/05/16 04:01:44;;;;;;;2.38;2.20;;;;;;;;;;5085928;28;20238;-67
2022/05/16 04:04:10;;;;;;;7.30;2.78;;;;;;;;;;5085600;28;20211;-67
2022/05/16 04:06:37;;;;;;;2.90;2.67;;;;;;;;;;5085433;28;20216;-67
2022/05/16 04:09:03;;;;;;;4.47;2.63;;;;;;;;;;5085772;28;20204;-67
2022/05/16 04:11:30;;;;;;;3.80;2.33;;;;;;;;;;5085484;28;20216;-67
2022/05/16 04:13:56;;;;;;;3.17;2.20;;;;;;;;;;5085662;28;20205;-67
2022/05/16 04:16:24;;;;;;;3.75;2.85;;;;;;;;;;5085229;28;20232;-67
2022/05/16 04:18:50;;;;;;;2.63;2.38;;;;;;;;;;5085913;28;20196;-67
2022/05/16 04:21:16;;;;;;;2.90;2.60;;;;;;;;;;5085388;28;20196;-67
2022/05/16 04:23:42;;;;;;;4.95;2.97;;;;;;;;;;5085647;28;20487;-67
2022/05/16 04:26:09;;;;;;;3.28;2.42;;;;;;;;;;5085174;28;20208;-67
2022/05/16 04:28:35;;;;;;;2.40;2.30;;;;;;;;;;5085438;28;20200;-67
2022/05/16 04:31:01;;;;;;;3.30;2.88;;;;;;;;;;5085138;28;20233;-67
2022/05/16 04:33:29;;;;;;;2.85;2.45;;;;;;;;;;5085219;28;20203;-67
2022/05/16 04:35:55;;;;;;;2.95;2.65;;;;;;;;;;5085041;28;20795;-67
2022/05/16 04:38:21;;;;;;;4.72;3.60;;;;;;;;;;5085074;28;20242;-67
2022/05/16 04:43:31;;;;;;;2.85;2.65;;;;;;;;;;5085012;28;20195;-67
2022/05/16 04:45:58;;;;;;;2.38;2.28;;;;;;;;;;5084719;28;20196;-67
2022/05/16 04:48:24;;;;;;;3.20;2.95;;;;;;;;;;5084824;28;20196;-67
2022/05/16 04:50:52;;;;;;;3.20;2.60;;;;;;;;;;5084952;28;20220;-67
2022/05/16 04:53:18;;;;;;;4.07;2.63;;;;;;;;;;5084993;28;20196;-67
2022/05/16 04:55:44;;;;;;;4.85;4.20;;;;;;;;;;5084746;28;20557;-67
2022/05/16 04:58:10;;;;;;;6.13;3.40;;;;;;;;;;5084683;28;20496;-67
2022/05/16 05:00:37;;;;;;;5.63;2.88;;;;;;;;;;5081036;28;20274;-67
2022/05/16 05:03:03;;;;;;;3.40;3.10;;;;;;;;;;5092962;28;20219;-67
2022/05/16 05:05:29;;;;;;;3.13;2.85;;;;;;;;;;5098867;28;20267;-67
2022/05/16 05:07:58;;;;;;;2.92;2.63;;;;;;;;;;5098668;28;20615;-67
2022/05/16 05:15:54;;;;;;;9.45;3.97;;;;;;;;;;5078283;28;20539;-60
2022/05/16 05:18:20;;;;;;;6.45;4.32;;;;;;;;;;5096748;28;20523;-60
2022/05/16 05:20:46;;;;;;;6.50;3.17;;;;;;;;;;5097879;28;20770;-62
2022/05/16 05:23:14;;;;;;;3.70;3.03;;;;;;;;;;5095682;28;20219;-62
2022/05/16 05:25:40;;;;;;;4.78;3.05;;;;;;;;;;5097933;28;20215;-61
2022/05/16 05:28:06;;;;;;;6.18;3.50;;;;;;;;;;5097904;28;20285;-62
2022/05/16 05:30:33;;;;;;;4.63;3.08;;;;;;;;;;5097722;28;20392;-62
2022/05/16 05:32:59;;;;;;;4.80;3.40;;;;;;;;;;5098046;28;20207;-61
2022/05/16 05:35:26;;;;;;;3.55;3.25;;;;;;;;;;5097991;28;20211;-61
2022/05/16 05:37:55;;;;;;;6.95;3.53;;;;;;;;;;5097674;28;20503;-61
2022/05/16 05:40:23;;;;;;;6.40;3.45;;;;;;;;;;5097399;28;20291;-62
2022/05/16 05:42:50;;;;;;;4.53;3.08;;;;;;;;;;5098106;28;20212;-61
2022/05/16 05:45:16;;;;;;;6.43;3.50;;;;;;;;;;5097771;28;20226;-62
2022/05/16 05:47:43;;;;;;;8.23;3.97;;;;;;;;;;5097008;28;20256;-60
2022/05/16 05:50:09;;;;;;;8.75;4.00;;;;;;;;;;5097547;28;20352;-60
2022/05/16 05:52:36;;;;;;;4.85;3.40;;;;;;;;;;5097249;28;20207;-61
2022/05/16 05:55:02;;;;;;;6.60;3.17;;;;;;;;;;5097461;28;20532;-60
2022/05/16 05:57:30;;;;;;;7.10;3.28;;;;;;;;;;5097467;28;20207;-60
2022/05/16 05:59:57;;;;;;;6.95;2.67;;;;;;;;;;5097389;28;20207;-60
2022/05/16 06:02:24;;;;;;;6.22;3.03;;;;;;;;;;5097264;28;20350;-60
2022/05/16 06:04:51;;;;;;;11.32;3.25;;;;;;;;;;5097117;28;20278;-60
2022/05/16 06:07:17;;;;;;;11.18;3.45;;;;;;;;;;5097142;28;20251;-60
2022/05/16 06:09:43;;;;;;;11.13;3.47;;;;;;;;;;5097138;28;20530;-60
2022/05/16 06:12:10;;;;;;;5.95;3.60;;;;;;;;;;5096525;28;20231;-61
2022/05/16 06:14:38;;;;;;;11.98;3.95;;;;;;;;;;5096978;28;20208;-61
2022/05/16 06:17:06;;;;;;;9.68;3.63;;;;;;;;;;5096722;28;20776;-61
2022/05/16 06:19:35;;;;;;;3.55;3.22;;;;;;;;;;5096958;28;20512;-61
2022/05/16 06:22:01;;;;;;;6.82;3.58;;;;;;;;;;5096350;28;20217;-61
2022/05/16 06:27:11;;;;;;;6.78;3.45;;;;;;;;;;5076982;28;20223;-61
2022/05/16 06:29:39;;;;;;;7.03;3.90;;;;;;;;;;5090130;28;20208;-61
2022/05/16 06:32:06;;;;;;;5.68;3.80;;;;;;;;;;5096909;28;20246;-62
2022/05/16 06:34:32;;;;;;;10.02;3.70;;;;;;;;;;5097012;28;20261;-62
2022/05/16 06:36:58;;;;;;;3.67;3.38;;;;;;;;;;5095900;28;20527;-62
2022/05/16 06:39:24;;;;;;;9.60;3.47;;;;;;;;;;5096888;28;20456;-62
2022/05/16 06:41:51;;;;;;;4.20;3.17;;;;;;;;;;5096596;28;20242;-61
2022/05/16 06:44:19;;;;;;;10.02;3.53;;;;;;;;;;5096854;28;20250;-61
2022/05/16 06:46:46;;;;;;;4.40;3.15;;;;;;;;;;5096604;28;20221;-61
2022/05/16 06:49:13;;;;;;;7.03;3.55;;;;;;;;;;5096367;28;20223;-62
2022/05/16 06:51:39;;;;;;;7.82;3.60;;;;;;;;;;5096310;28;20463;-61
2022/05/16 06:54:06;;;;;;;5.55;3.25;;;;;;;;;;5096870;28;20214;-61
2022/05/16 06:56:32;;;;;;;3.72;3.42;;;;;;;;;;5096477;28;20207;-61
2022/05/16 06:58:58;;;;;;;5.85;3.55;;;;;;;;;;5096593;28;20207;-61
2022/05/16 07:01:25;;;;;;;5.88;3.60;;;;;;;;;;5095912;28;20249;-61
2022/05/16 07:03:52;;;;;;;3.80;3.17;;;;;;;;;;5096081;28;20255;-61
2022/05/16 07:06:18;;;;;;;7.50;3.67;;;;;;;;;;5095884;28;20458;-61
2022/05/16 07:08:45;;;;;;;7.93;3.70;;;;;;;;;;5096123;28;20499;-62
2022/05/16 07:11:11;;;;;;;7.72;3.47;;;;;;;;;;5095997;28;20569;-62
2022/05/16 07:13:37;;;;;;;8.20;3.70;;;;;;;;;;5095820;28;20526;-62
2022/05/16 07:16:04;;;;;;;6.53;3.80;;;;;;;;;;5097324;28;20245;-63
2022/05/16 07:18:30;;;;;;;6.57;3.72;;;;;;;;;;5097863;28;20216;-62
2022/05/16 07:20:59;;;;;;;6.97;3.28;;;;;;;;;;5096283;28;20261;-62
2022/05/16 07:23:26;;;;;;;8.30;4.93;;;;;;;;;;5096122;28;20538;-62
2022/05/16 07:28:37;;;;;;;10.18;4.63;;;;;;;;;;5095920;28;20210;-62
2022/05/16 07:31:03;;;;;;;8.30;3.63;;;;;;;;;;5095058;28;20220;-62
2022/05/16 07:33:30;;;;;;;6.75;3.40;;;;;;;;;;5096044;28;20208;-63
2022/05/16 07:35:57;;;;;;;7.38;3.50;;;;;;;;;;5096303;28;20227;-63
2022/05/16 07:38:25;;;;;;;3.95;3.42;;;;;;;;;;5096399;28;20257;-62
2022/05/16 07:40:52;;;;;;;12.75;3.40;;;;;;;;;;5095787;28;20238;-61
2022/05/16 07:43:19;;;;;;;4.05;3.05;;;;;;;;;;5095540;28;20220;-62
2022/05/16 07:45:45;;;;;;;5.53;4.50;;;;;;;;;;5075893;28;20212;-62
2022/05/16 07:48:12;;;;;;;4.10;3.17;;;;;;;;;;5075243;28;20290;-62
2022/05/16 07:50:39;;;;;;;6.13;3.95;;;;;;;;;;5075315;28;20307;-63
2022/05/16 07:53:11;;;;;;;7.82;3.28;;;;;;;;;;5075331;28;20239;-62
2022/05/16 07:55:39;;;;;;;4.47;3.08;;;;;;;;;;5082228;28;20566;-62
2022/05/16 07:58:05;;;;;;;3.60;3.28;;;;;;;;;;5095497;28;20208;-62
2022/05/16 08:00:32;;;;;;;3.25;2.90;;;;;;;;;;5095798;28;20341;-62
2022/05/16 08:02:58;;;;;;;5.55;2.83;;;;;;;;;;5095393;28;20211;-63
2022/05/16 08:05:25;;;;;;;3.17;2.80;;;;;;;;;;5095738;28;20230;-62
2022/05/16 08:10:39;;;;;;;6.82;3.67;;;;;;;;;;5095755;28;20271;-63
2022/05/16 08:13:07;;;;;;;5.47;4.20;;;;;;;;;;5095539;28;20231;-63
2022/05/16 08:15:34;;;;;;;3.85;3.47;;;;;;;;;;5095640;28;20208;-61
2022/05/16 08:18:02;;;;;;;4.32;3.53;;;;;;;;;;5095215;28;20286;-63
2022/05/16 08:20:29;;;;;;;3.55;3.10;;;;;;;;;;5095505;28;20605;-62
2022/05/16 08:22:55;;;;;;;4.13;3.00;;;;;;;;;;5095096;28;20212;-63
2022/05/16 08:25:22;;;;;;;4.65;2.90;;;;;;;;;;5095687;28;20520;-63
2022/05/16 08:27:50;;;;;;;6.75;3.80;;;;;;;;;;5095371;28;20253;-62
2022/05/16 08:30:17;;;;;;;4.70;3.50;;;;;;;;;;5095611;28;20519;-62
2022/05/16 08:32:44;;;;;;;4.55;3.85;;;;;;;;;;5095550;28;20227;-63
2022/05/16 08:35:11;;;;;;;5.35;2.97;;;;;;;;;;5095454;28;20226;-62
2022/05/16 08:40:21;;;;;;;8.88;4.50;;;;;;;;;;5095376;28;20253;-62
2022/05/16 08:42:51;;;;;;;4.60;3.75;;;;;;;;;;5095354;28;20211;-63
2022/05/16 08:45:18;;;;;;;5.30;3.08;;;;;;;;;;5099335;28;20261;-62
2022/05/16 08:47:54;;;;;;;3.20;2.90;;;;;;;;;;5099105;28;20208;-63
2022/05/16 08:50:24;;;;;;;6.80;3.33;;;;;;;;;;5099478;28;20235;-62
2022/05/16 08:52:52;;;;;;;3.35;3.03;;;;;;;;;;5099280;28;20555;-63
2022/05/16 08:55:23;;;;;;;4.05;2.90;;;;;;;;;;5099428;28;20211;-63
2022/05/16 08:57:54;;;;;;;3.55;3.22;;;;;;;;;;5099318;28;20250;-63
2022/05/16 09:00:24;;;;;;;3.60;3.10;;;;;;;;;;5099066;28;20248;-63
2022/05/16 09:02:51;;;;;;;2.97;2.78;;;;;;;;;;5099131;28;20219;-63
2022/05/16 09:05:19;;;;;;;5.55;3.17;;;;;;;;;;5098941;28;20471;-63
2022/05/16 09:07:47;;;;;;;5.25;2.72;;;;;;;;;;5098989;28;20233;-63
2022/05/16 09:10:15;;;;;;;4.28;2.97;;;;;;;;;;5098995;28;20264;-61
2022/05/16 09:12:44;;;;;;;5.38;2.80;;;;;;;;;;5098625;28;20456;-62
2022/05/16 09:15:17;;;;;;;6.72;2.90;;;;;;;;;;5099083;28;20252;-62
2022/05/16 09:18:02;;;;;;;5.95;2.80;;;;;;;;;;5098560;28;20437;-62
2022/05/16 09:20:33;;;;;;;3.55;2.75;;;;;;;;;;5098721;28;20261;-62
2022/05/16 09:23:02;;;;;;;4.63;3.42;;;;;;;;;;5081281;28;20212;-62
2022/05/16 09:25:31;;;;;;;5.47;3.00;;;;;;;;;;5078261;28;20277;-62
2022/05/16 09:30:46;;;;;;;4.03;2.60;;;;;;;;;;5078296;28;20290;-62
2022/05/16 09:33:15;;;;;;;4.47;2.70;;;;;;;;;;5078369;28;20224;-62
2022/05/16 09:35:46;;;;;;;6.05;2.92;;;;;;;;;;5078033;28;20249;-62
2022/05/16 09:38:12;;;;;;;3.42;2.90;;;;;;;;;;5078213;28;20208;-62
2022/05/16 09:40:39;;;;;;;6.18;3.30;;;;;;;;;;5078059;28;20208;-62
2022/05/16 09:43:07;;;;;;;10.52;3.42;;;;;;;;;;5078026;28;20204;-62
2022/05/16 09:45:35;;;;;;;11.68;3.10;;;;;;;;;;5078340;28;20542;-62
2022/05/16 09:48:14;;;;;;;7.60;3.20;;;;;;;;;;5077981;28;20211;-62
2022/05/16 09:50:41;;;;;;;3.08;2.80;;;;;;;;;;5078200;28;20269;-62
2022/05/16 09:53:13;;;;;;;4.13;2.55;;;;;;;;;;5078156;28;20261;-62
2022/05/16 09:55:43;;;;;;;3.38;2.83;;;;;;;;;;5084318;28;20590;-62
2022/05/16 09:58:14;;;;;;;6.18;2.67;;;;;;;;;;5097466;28;20603;-63
2022/05/16 10:00:44;;;;;;;3.65;2.88;;;;;;;;;;5097501;28;20213;-63
2022/05/16 10:03:20;;;;;;;6.20;2.90;;;;;;;;;;5097657;28;20211;-63
2022/05/16 10:05:47;;;;;;;4.88;2.90;;;;;;;;;;5097721;28;20223;-63
2022/05/16 10:08:22;;;;;;;2.63;2.42;;;;;;;;;;5097588;28;20235;-63
2022/05/16 10:10:49;;;;;;;3.60;2.60;;;;;;;;;;5097602;28;20198;-63
2022/05/16 10:13:16;;;;;;;4.45;2.78;;;;;;;;;;5097679;28;20602;-63
2022/05/16 10:15:43;;;;;;;4.70;2.67;;;;;;;;;;5097797;28;20208;-63
2022/05/16 10:18:13;;;;;;;4.78;2.95;;;;;;;;;;5097553;28;20238;-63
2022/05/16 10:20:45;;;;;;;7.70;3.22;;;;;;;;;;5097057;28;20203;-63
2022/05/16 10:23:13;;;;;;;5.28;2.83;;;;;;;;;;5097810;28;20195;-63
2022/05/16 10:25:42;;;;;;;4.25;2.80;;;;;;;;;;5097661;28;20211;-63
2022/05/16 10:28:10;;;;;;;4.35;3.20;;;;;;;;;;5097463;28;20207;-62
2022/05/16 10:33:27;;;;;;;3.45;3.15;;;;;;;;;;5097720;28;20402;-62
2022/05/16 10:35:57;;;;;;;3.75;3.35;;;;;;;;;;5097378;28;20237;-61
2022/05/16 10:38:25;;;;;;;4.85;3.30;;;;;;;;;;5097227;28;20199;-61
2022/05/16 10:40:54;;;;;;;5.10;3.33;;;;;;;;;;5097102;28;20207;-61
2022/05/16 10:43:25;;;;;;;4.13;3.08;;;;;;;;;;5097198;28;20203;-62
2022/05/16 10:45:54;;;;;;;5.07;3.40;;;;;;;;;;5076842;28;20230;-62
2022/05/16 10:48:25;;;;;;;6.40;3.95;;;;;;;;;;5076670;28;20546;-61
2022/05/16 10:50:54;;;;;;;4.07;3.63;;;;;;;;;;5076876;28;20207;-61
2022/05/16 10:53:23;;;;;;;7.07;3.97;;;;;;;;;;5077848;28;20439;-61
2022/05/16 10:55:57;;;;;;;3.95;3.20;;;;;;;;;;5085300;28;20207;-62
2022/05/16 10:58:29;;;;;;;4.38;3.78;;;;;;;;;;5097075;28;20210;-62
2022/05/16 11:00:59;;;;;;;4.97;3.30;;;;;;;;;;5096689;28;20234;-61
2022/05/16 11:03:44;;;;;;;6.30;3.70;;;;;;;;;;5096687;28;20215;-62
2022/05/16 11:06:26;;;;;;;5.88;3.47;;;;;;;;;;5096007;28;20231;-62
2022/05/16 11:09:01;;;;;;;4.68;3.65;;;;;;;;;;5096876;28;20248;-61
2022/05/16 11:11:30;;;;;;;5.20;3.50;;;;;;;;;;5096508;28;20206;-62
2022/05/16 11:14:04;;;;;;;8.63;3.90;;;;;;;;;;5096789;28;20231;-62
2022/05/16 11:16:32;;;;;;;6.70;3.40;;;;;;;;;;5096529;28;20214;-63
2022/05/16 11:19:13;;;;;;;10.48;3.30;;;;;;;;;;5096578;28;20577;-62
2022/05/16 11:21:45;;;;;;;7.82;2.88;;;;;;;;;;5076716;28;20591;-63
2022/05/16 11:24:20;;;;;;;3.95;2.67;;;;;;;;;;5076811;28;20207;-63
2022/05/16 11:26:49;;;;;;;4.72;2.60;;;;;;;;;;5076359;28;20207;-63
2022/05/16 11:29:19;;;;;;;5.00;2.20;;;;;;;;;;5076374;28;20207;-63
2022/05/16 11:31:53;;;;;;;4.15;2.20;;;;;;;;;;5075876;28;20279;-63
2022/05/16 11:34:22;;;;;;;4.97;2.72;;;;;;;;;;5076250;28;20445;-63
2022/05/16 11:36:50;;;;;;;3.33;2.55;;;;;;;;;;5075820;28;20443;-63
2022/05/16 11:39:20;;;;;;;5.00;2.30;;;;;;;;;;5076001;28;20211;-62
2022/05/16 11:41:54;;;;;;;8.10;2.60;;;;;;;;;;5075762;28;20208;-63
2022/05/16 11:44:24;;;;;;;6.95;2.35;;;;;;;;;;5076211;28;20215;-63
2022/05/16 11:46:53;;;;;;;3.65;2.22;;;;;;;;;;5075680;28;20508;-62
2022/05/16 11:49:22;;;;;;;9.52;2.10;;;;;;;;;;5075985;28;20233;-64
2022/05/16 11:51:53;;;;;;;15.30;2.00;;;;;;;;;;5075932;28;20265;-63
2022/05/16 11:54:23;;;;;;;4.80;1.65;;;;;;;;;;5076353;28;20220;-63
2022/05/16 12:02:36;;;;;;;3.30;1.30;;;;;;;;;;5096239;28;20215;-62
2022/05/16 12:05:04;;;;;;;7.60;1.60;;;;;;;;;;5096811;28;20448;-62
2022/05/16 12:07:32;;;;;;;6.03;1.38;;;;;;;;;;5096019;28;20429;-62
2022/05/16 12:10:02;;;;;;;5.65;1.33;;;;;;;;;;5096072;28;20242;-62
2022/05/16 12:12:31;;;;;;;3.10;1.50;;;;;;;;;;5096101;28;20294;-62
2022/05/16 12:15:08;;;;;;;4.43;1.45;;;;;;;;;;5096610;28;20253;-61
2022/05/16 12:17:35;;;;;;;2.50;1.50;;;;;;;;;;5096973;28;20215;-62
2022/05/16 12:20:09;;;;;;;8.13;1.90;;;;;;;;;;5100068;28;20249;-62
2022/05/16 12:22:46;;;;;;;10.23;1.90;;;;;;;;;;5099558;28;20217;-63
2022/05/16 12:25:27;;;;;;;5.32;1.90;;;;;;;;;;5096540;28;20421;-63
2022/05/16 12:28:16;;;;;;;6.43;2.10;;;;;;;;;;5099933;28;20208;-62
2022/05/16 12:30:43;;;;;;;2.88;1.40;;;;;;;;;;5099577;28;20215;-62
2022/05/16 12:33:28;;;;;;;7.20;1.60;;;;;;;;;;5099502;28;20224;-63
2022/05/16 12:35:54;;;;;;;6.82;1.90;;;;;;;;;;5100229;28;20464;-62
2022/05/16 12:38:22;;;;;;;2.55;1.17;;;;;;;;;;5099754;28;20322;-62
2022/05/16 12:41:07;;;;;;;7.85;1.80;;;;;;;;;;5100015;28;20291;-61
2022/05/16 12:43:40;;;;;;;6.70;1.73;;;;;;;;;;5099771;28;20207;-62
2022/05/16 12:46:12;;;;;;;2.92;1.70;;;;;;;;;;5099619;28;20207;-62
2022/05/16 12:48:52;;;;;;;3.05;1.73;;;;;;;;;;5099750;28;20519;-62
2022/05/16 12:51:23;;;;;;;4.22;1.92;;;;;;;;;;5099333;28;20461;-62
2022/05/16 12:54:20;;;;;;;1.92;1.40;;;;;;;;;;5099770;28;20427;-61
2022/05/16 12:56:48;;;;;;;3.45;1.52;;;;;;;;;;5099017;28;20233;-62
2022/05/16 12:59:22;;;;;;;2.30;1.45;;;;;;;;;;5099228;28;20211;-61
2022/05/16 13:01:50;;;;;;;4.05;2.03;;;;;;;;;;5099239;28;20245;-62
2022/05/16 13:04:21;;;;;;;2.22;1.42;;;;;;;;;;5098634;28;20457;-63
2022/05/16 13:06:51;;;;;;;3.58;1.52;;;;;;;;;;5099234;28;20228;-63
2022/05/16 13:09:23;;;;;;;3.97;1.80;;;;;;;;;;5099391;28;20212;-61
2022/05/16 13:11:54;;;;;;;2.60;1.67;;;;;;;;;;5098898;28;20212;-61
2022/05/16 13:14:28;;;;;;;2.28;1.70;;;;;;;;;;5098889;28;20292;-61
2022/05/16 13:16:55;;;;;;;5.25;1.60;;;;;;;;;;5098694;28;20253;-61
2022/05/16 13:19:23;;;;;;;3.28;2.00;;;;;;;;;;5098827;28;20405;-61
2022/05/16 13:21:51;;;;;;;3.08;1.23;;;;;;;;;;5098362;28;20216;-61
2022/05/16 13:24:18;;;;;;;3.92;1.38;;;;;;;;;;5099139;28;20211;-61
2022/05/16 13:29:34;;;;;;;2.15;1.55;;;;;;;;;;5097951;28;20218;-61
2022/05/16 13:32:07;;;;;;;1.58;1.45;;;;;;;;;;5098657;28;20526;-61
2022/05/16 13:34:35;;;;;;;1.90;1.70;;;;;;;;;;5098585;28;20265;-61
2022/05/16 13:37:02;;;;;;;6.35;1.70;;;;;;;;;;5098600;28;20231;-61
2022/05/16 13:39:34;;;;;;;4.95;1.77;;;;;;;;;;5098353;28;20208;-61
2022/05/16 13:42:01;;;;;;;3.17;1.30;;;;;;;;;;5098341;28;20388;-62
2022/05/16 13:44:34;;;;;;;5.85;1.98;;;;;;;;;;5098303;28;20261;-62
2022/05/16 13:47:01;;;;;;;5.05;1.60;;;;;;;;;;5098431;28;20231;-62
2022/05/16 13:49:27;;;;;;;5.35;1.45;;;;;;;;;;5098176;28;20281;-62
2022/05/16 13:51:53;;;;;;;2.13;1.58;;;;;;;;;;5097350;28;20212;-62
2022/05/16 13:54:22;;;;;;;4.50;1.50;;;;;;;;;;5097796;28;20235;-62
2022/05/16 13:56:49;;;;;;;2.42;1.55;;;;;;;;;;5097639;28;20278;-62
2022/05/16 13:59:21;;;;;;;2.03;1.42;;;;;;;;;;5097826;28;20423;-62
2022/05/16 14:01:54;;;;;;;4.10;1.75;;;;;;;;;;5097072;28;20218;-62
2022/05/16 14:04:22;;;;;;;4.15;1.63;;;;;;;;;;5097273;28;20522;-62
2022/05/16 14:06:50;;;;;;;5.22;1.58;;;;;;;;;;5097021;28;20223;-61
2022/05/16 14:09:19;;;;;;;2.95;1.40;;;;;;;;;;5097868;28;20211;-61
2022/05/16 14:11:46;;;;;;;4.43;1.40;;;;;;;;;;5097411;28;20214;-62
2022/05/16 14:14:14;;;;;;;4.78;2.00;;;;;;;;;;5097764;28;20227;-61
2022/05/16 14:16:41;;;;;;;3.08;1.55;;;;;;;;;;5097648;28;20430;-61
2022/05/16 14:19:11;;;;;;;7.20;2.10;;;;;;;;;;5097588;28;20248;-63
2022/05/16 14:21:51;;;;;;;2.20;1.90;;;;;;;;;;5096810;28;20234;-63
2022/05/16 14:24:19;;;;;;;9.15;2.05;;;;;;;;;;5096700;28;20248;-63
2022/05/16 14:26:48;;;;;;;5.32;2.00;;;;;;;;;;5096763;28;20207;-63
2022/05/16 14:29:16;;;;;;;4.57;2.40;;;;;;;;;;5096880;28;20384;-63
2022/05/16 14:31:45;;;;;;;3.17;1.95;;;;;;;;;;5095923;28;20229;-62
2022/05/16 14:34:20;;;;;;;4.82;2.10;;;;;;;;;;5096446;28;20457;-63
2022/05/16 14:36:47;;;;;;;3.47;2.35;;;;;;;;;;5096419;28;20252;-62
2022/05/16 14:39:15;;;;;;;6.00;2.50;;;;;;;;;;5095927;28;20238;-62
2022/05/16 14:41:52;;;;;;;8.02;2.80;;;;;;;;;;5095899;28;20256;-63
2022/05/16 14:44:19;;;;;;;5.22;2.58;;;;;;;;;;5096371;28;20421;-63
2022/05/16 14:46:56;;;;;;;3.92;2.45;;;;;;;;;;5096349;28;20220;-63
2022/05/16 14:49:23;;;;;;;3.35;2.50;;;;;;;;;;5096399;28;20597;-63
2022/05/16 14:51:50;;;;;;;3.15;2.40;;;;;;;;;;5095740;28;20199;-63
2022/05/16 14:54:20;;;;;;;3.30;2.58;;;;;;;;;;5096315;28;20505;-62
2022/05/16 14:56:46;;;;;;;2.42;2.17;;;;;;;;;;5096060;28;20215;-62
2022/05/16 14:59:12;;;;;;;5.13;2.10;;;;;;;;;;5096503;28;20520;-63
2022/05/16 15:04:24;;;;;;;5.88;2.33;;;;;;;;;;5096649;28;20197;-63
2022/05/16 15:06:50;;;;;;;4.07;2.00;;;;;;;;;;5095960;28;20582;-61
2022/05/16 15:09:19;;;;;;;2.83;2.00;;;;;;;;;;5096230;28;20522;-61
2022/05/16 15:11:46;;;;;;;5.70;2.15;;;;;;;;;;5095489;28;20214;-61
2022/05/16 15:14:12;;;;;;;5.03;2.25;;;;;;;;;;5095666;28;20460;-70
2022/05/16 15:16:40;;;;;;;4.57;2.40;;;;;;;;;;5096189;28;20207;-69
2022/05/16 15:19:07;;;;;;;6.20;2.53;;;;;;;;;;5096356;28;20208;-69
2022/05/16 15:21:34;;;;;;;3.28;2.00;;;;;;;;;;5095597;28;20598;-69
2022/05/16 15:24:02;;;;;;;4.82;2.15;;;;;;;;;;5095933;28;20264;-69
2022/05/16 15:26:28;;;;;;;7.60;2.10;;;;;;;;;;5095999;28;20540;-69
2022/05/16 15:28:55;;;;;;;4.18;2.13;;;;;;;;;;5095991;28;20511;-69
2022/05/16 15:31:21;;;;;;;4.03;1.98;;;;;;;;;;5096041;28;20611;-69
2022/05/16 15:33:47;;;;;;;4.80;2.13;;;;;;;;;;5096213;28;20227;-69
2022/05/16 15:36:14;;;;;;;5.72;2.22;;;;;;;;;;5095670;28;20498;-69